Salvamar Nunki — EA3364 — position and weather

sailwx.info

Track history (hours):
 
Tides and Currents Weather Stations Pressure Air Temp Water Temp Dewpoint Dewpoint Depression Visibility Wind Speed Wind Dir Waves Ship Positions

Salvamar Nunki

Last reported at 2018-May-25 11:28 UTC. Time now 2018-May-25 14:45 UTC.
Position N 28°08' W 015°26'.

Length 21 m; draft 1 m.

Type: SAR. MMSI: 224049950.

Date/timePositionNaut miles runAvg speedWind from/ knotsBaromVisibWave heightAir tempDewpointWater temp
2018-May-25 11:28N 28°08' W 015°26'0 0.1
2018-May-25 11:00N 28°08' W 015°26'0 0.1
2018-May-25 10:29N 28°08' W 015°25'0 0.0
2018-May-25 10:00N 28°08' W 015°25'0 0.0
2018-May-25 09:30N 28°08' W 015°25'0 0.0
2018-May-25 09:00N 28°08' W 015°25'0 0.0
2018-May-25 08:30N 28°08' W 015°25'0 0.0
2018-May-25 08:00N 28°08' W 015°25'0 0.0
2018-May-25 07:30N 28°08' W 015°25'0 0.0
2018-May-24 15:16N 28°08' W 015°25'310.5
2018-May-24 15:01N 28°06' W 015°23'4 7.4
2018-May-24 14:30N 28°04' W 015°19'612.7
2018-May-24 14:00N 28°08' W 015°25'0 0.0
2018-May-24 13:30N 28°08' W 015°25'0 0.0
2018-May-24 09:00N 28°08' W 015°25'0 0.0
2018-May-24 08:30N 28°08' W 015°25'2 5.0
2018-May-24 08:00N 28°06' W 015°23'1 2.7
2018-May-24 07:31N 28°06' W 015°22'0 0.5
2018-May-24 07:00N 28°07' W 015°22'4 7.0
2018-May-24 06:29N 28°08' W 015°25'0 0.0
2018-May-23 11:46N 28°08' W 015°25'0 0.0
2018-May-23 11:30N 28°08' W 015°25'0 0.1
2018-May-23 11:00N 28°08' W 015°26'2 4.6
2018-May-23 10:31N 28°09' W 015°24'4 7.5
2018-May-23 10:00N 28°11' W 015°27'4 7.8
2018-May-23 09:30N 28°08' W 015°25'0 0.0
2018-May-23 09:00N 28°08' W 015°25'0 0.0
2018-May-23 08:30N 28°08' W 015°25'0 0.0
2018-May-23 08:00N 28°08' W 015°25'0 0.0
2018-May-22 16:39N 28°08' W 015°25'0 0.0
2018-May-22 16:30N 28°08' W 015°25'0 0.0
2018-May-22 16:00N 28°08' W 015°25'0 0.0
2018-May-22 15:30N 28°08' W 015°25'0 0.0
2018-May-22 15:00N 28°08' W 015°25'0 0.0
2018-May-22 14:30N 28°08' W 015°25'0 0.0
2018-May-22 14:00N 28°08' W 015°25'0 0.0
2018-May-22 13:30N 28°08' W 015°25'0 0.0
2018-May-22 13:00N 28°08' W 015°25'0 0.0
2018-May-22 12:30N 28°08' W 015°25'0 0.0
2018-May-22 12:00N 28°08' W 015°25'0 0.0
2018-May-22 11:30N 28°08' W 015°25'0 0.0
2018-May-22 11:00N 28°08' W 015°25'0 0.0
2018-May-22 10:29N 28°08' W 015°25'0 0.0
2018-May-22 10:00N 28°08' W 015°25'0 0.0
2018-May-22 09:29N 28°08' W 015°25'0 0.0
2018-May-22 09:00N 28°08' W 015°25'0 0.0
2018-May-21 16:32N 28°08' W 015°25'0 0.1
2018-May-21 16:30N 28°08' W 015°25'0 0.0
2018-May-21 16:00N 28°08' W 015°25'0 0.0
2018-May-21 15:30N 28°08' W 015°25'0 0.0
2018-May-21 15:00N 28°08' W 015°25'0 0.0
2018-May-21 14:30N 28°08' W 015°25'0 0.0
2018-May-21 14:00N 28°08' W 015°25'0 0.0
2018-May-21 13:30N 28°08' W 015°25'0 0.0
2018-May-21 13:00N 28°08' W 015°25'0 0.0
2018-May-21 12:30N 28°08' W 015°25'0 0.0
2018-May-21 12:00N 28°08' W 015°25'0 0.0
2018-May-21 11:30N 28°08' W 015°25'0 0.0
2018-May-21 11:00N 28°08' W 015°25'0 0.0
2018-May-21 10:28N 28°08' W 015°25'0 0.0
2018-May-21 10:00N 28°08' W 015°25'0 0.0
2018-May-21 09:30N 28°08' W 015°25'0 0.0
2018-May-21 09:00N 28°08' W 015°25'0 0.0
2018-May-21 08:30N 28°08' W 015°25'0 0.0
2018-May-21 08:00N 28°08' W 015°25'  
2018-May-18 11:48N 28°08' W 015°25'0 0.0
2018-May-18 11:30N 28°08' W 015°25'0 0.0
2018-May-18 11:00N 28°08' W 015°25'0 0.0
2018-May-18 10:30N 28°08' W 015°25'0 0.0
2018-May-18 10:00N 28°08' W 015°25'0 0.0
2018-May-18 09:30N 28°08' W 015°25'0 0.0
2018-May-18 09:00N 28°08' W 015°25'0 0.0
2018-May-16 17:39N 28°08' W 015°25'1 4.4
2018-May-16 17:30N 28°07' W 015°25'3 5.6
2018-May-16 17:00N 28°06' W 015°22'1 1.2
2018-May-16 16:30N 28°06' W 015°23'2 5.0
2018-May-16 16:00N 28°04' W 015°22'3 5.1
2018-May-16 15:30N 28°06' W 015°24'2 0.6
2018-May-16 11:39N 28°08' W 015°25'0 0.0
2018-May-16 11:30N 28°08' W 015°25'0 0.0
2018-May-16 11:00N 28°08' W 015°25'0 0.0
2018-May-16 10:30N 28°08' W 015°25'0 0.0
2018-May-16 09:59N 28°08' W 015°25'0 0.0
2018-May-16 09:30N 28°08' W 015°25'0 0.0
2018-May-16 09:00N 28°08' W 015°25'0 0.0
2018-May-16 08:30N 28°08' W 015°25'0 0.0
2018-May-16 08:00N 28°08' W 015°25'  
Track history (hours):
 
Tides and Currents Weather Stations Pressure Air Temp Water Temp Dewpoint Dewpoint Depression Visibility Wind Speed Wind Dir Waves Ship Positions

Salvamar Nunki

Last reported at 2018-May-25 11:28 UTC. Time now 2018-May-25 14:45 UTC.
Position N 28°08' W 015°26'.

Length 21 m; draft 1 m.

Type: SAR. MMSI: 224049950.

Date/timePositionNaut miles runAvg speedWind from/ knotsBaromVisibWave heightAir tempDewpointWater temp
2018-May-25 11:28N 28°08' W 015°26'0 0.1
2018-May-25 11:00N 28°08' W 015°26'0 0.1
2018-May-25 10:29N 28°08' W 015°25'0 0.0
2018-May-25 10:00N 28°08' W 015°25'0 0.0
2018-May-25 09:30N 28°08' W 015°25'0 0.0
2018-May-25 09:00N 28°08' W 015°25'0 0.0
2018-May-25 08:30N 28°08' W 015°25'0 0.0
2018-May-25 08:00N 28°08' W 015°25'0 0.0
2018-May-25 07:30N 28°08' W 015°25'0 0.0
2018-May-24 15:16N 28°08' W 015°25'310.5
2018-May-24 15:01N 28°06' W 015°23'4 7.4
2018-May-24 14:30N 28°04' W 015°19'612.7
2018-May-24 14:00N 28°08' W 015°25'0 0.0
2018-May-24 13:30N 28°08' W 015°25'0 0.0
2018-May-24 09:00N 28°08' W 015°25'0 0.0
2018-May-24 08:30N 28°08' W 015°25'2 5.0
2018-May-24 08:00N 28°06' W 015°23'1 2.7
2018-May-24 07:31N 28°06' W 015°22'0 0.5
2018-May-24 07:00N 28°07' W 015°22'4 7.0
2018-May-24 06:29N 28°08' W 015°25'0 0.0
2018-May-23 11:46N 28°08' W 015°25'0 0.0
2018-May-23 11:30N 28°08' W 015°25'0 0.1
2018-May-23 11:00N 28°08' W 015°26'2 4.6
2018-May-23 10:31N 28°09' W 015°24'4 7.5
2018-May-23 10:00N 28°11' W 015°27'4 7.8
2018-May-23 09:30N 28°08' W 015°25'0 0.0
2018-May-23 09:00N 28°08' W 015°25'0 0.0
2018-May-23 08:30N 28°08' W 015°25'0 0.0
2018-May-23 08:00N 28°08' W 015°25'0 0.0
2018-May-22 16:39N 28°08' W 015°25'0 0.0
2018-May-22 16:30N 28°08' W 015°25'0 0.0
2018-May-22 16:00N 28°08' W 015°25'0 0.0
2018-May-22 15:30N 28°08' W 015°25'0 0.0
2018-May-22 15:00N 28°08' W 015°25'0 0.0
2018-May-22 14:30N 28°08' W 015°25'0 0.0
2018-May-22 14:00N 28°08' W 015°25'0 0.0
2018-May-22 13:30N 28°08' W 015°25'0 0.0
2018-May-22 13:00N 28°08' W 015°25'0 0.0
2018-May-22 12:30N 28°08' W 015°25'0 0.0
2018-May-22 12:00N 28°08' W 015°25'0 0.0
2018-May-22 11:30N 28°08' W 015°25'0 0.0
2018-May-22 11:00N 28°08' W 015°25'0 0.0
2018-May-22 10:29N 28°08' W 015°25'0 0.0
2018-May-22 10:00N 28°08' W 015°25'0 0.0
2018-May-22 09:29N 28°08' W 015°25'0 0.0
2018-May-22 09:00N 28°08' W 015°25'0 0.0
2018-May-21 16:32N 28°08' W 015°25'0 0.1
2018-May-21 16:30N 28°08' W 015°25'0 0.0
2018-May-21 16:00N 28°08' W 015°25'0 0.0
2018-May-21 15:30N 28°08' W 015°25'0 0.0
2018-May-21 15:00N 28°08' W 015°25'0 0.0
2018-May-21 14:30N 28°08' W 015°25'0 0.0
2018-May-21 14:00N 28°08' W 015°25'0 0.0
2018-May-21 13:30N 28°08' W 015°25'0 0.0
2018-May-21 13:00N 28°08' W 015°25'0 0.0
2018-May-21 12:30N 28°08' W 015°25'0 0.0
2018-May-21 12:00N 28°08' W 015°25'0 0.0
2018-May-21 11:30N 28°08' W 015°25'0 0.0
2018-May-21 11:00N 28°08' W 015°25'0 0.0
2018-May-21 10:28N 28°08' W 015°25'0 0.0
2018-May-21 10:00N 28°08' W 015°25'0 0.0
2018-May-21 09:30N 28°08' W 015°25'0 0.0
2018-May-21 09:00N 28°08' W 015°25'0 0.0
2018-May-21 08:30N 28°08' W 015°25'0 0.0
2018-May-21 08:00N 28°08' W 015°25'  
2018-May-18 11:48N 28°08' W 015°25'0 0.0
2018-May-18 11:30N 28°08' W 015°25'0 0.0
2018-May-18 11:00N 28°08' W 015°25'0 0.0
2018-May-18 10:30N 28°08' W 015°25'0 0.0
2018-May-18 10:00N 28°08' W 015°25'0 0.0
2018-May-18 09:30N 28°08' W 015°25'0 0.0
2018-May-18 09:00N 28°08' W 015°25'0 0.0
2018-May-16 17:39N 28°08' W 015°25'1 4.4
2018-May-16 17:30N 28°07' W 015°25'3 5.6
2018-May-16 17:00N 28°06' W 015°22'1 1.2
2018-May-16 16:30N 28°06' W 015°23'2 5.0
2018-May-16 16:00N 28°04' W 015°22'3 5.1
2018-May-16 15:30N 28°06' W 015°24'2 0.6
2018-May-16 11:39N 28°08' W 015°25'0 0.0
2018-May-16 11:30N 28°08' W 015°25'0 0.0
2018-May-16 11:00N 28°08' W 015°25'0 0.0
2018-May-16 10:30N 28°08' W 015°25'0 0.0
2018-May-16 09:59N 28°08' W 015°25'0 0.0
2018-May-16 09:30N 28°08' W 015°25'0 0.0
2018-May-16 09:00N 28°08' W 015°25'0 0.0
2018-May-16 08:30N 28°08' W 015°25'0 0.0
2018-May-16 08:00N 28°08' W 015°25'  

Dump ship's entire track history